createdAt,value
2022-10-22T00:01:55.924Z,9.66
2022-10-22T00:04:58.934Z,9.65
2022-10-22T00:08:01.443Z,9.65
2022-10-22T00:11:12.679Z,9.66
2022-10-22T00:14:16.252Z,9.64
2022-10-22T00:17:19.075Z,9.54
2022-10-22T00:20:22.795Z,9.62
2022-10-22T00:23:25.768Z,9.61
2022-10-22T00:26:28.475Z,9.64
2022-10-22T00:29:31.725Z,9.64
2022-10-22T00:32:34.306Z,9.64
2022-10-22T00:35:37.115Z,9.63
2022-10-22T00:38:39.546Z,9.63
2022-10-22T00:41:43.872Z,9.64
2022-10-22T00:45:07.065Z,9.54
2022-10-22T00:48:09.905Z,9.56
2022-10-22T00:51:12.392Z,9.51
2022-10-22T00:54:15.209Z,9.47
2022-10-22T00:57:18.852Z,9.40
2022-10-22T01:00:22.076Z,9.38
2022-10-22T01:03:24.920Z,9.30
2022-10-22T01:06:31.231Z,9.38
2022-10-22T01:09:48.104Z,9.35
2022-10-22T01:13:05.984Z,9.35
2022-10-22T01:16:27.017Z,9.33
2022-10-22T01:19:40.284Z,9.36
2022-10-22T01:22:52.289Z,9.35
2022-10-22T01:26:09.567Z,9.35
2022-10-22T01:29:33.773Z,9.35
2022-10-22T01:32:58.561Z,9.32
2022-10-22T01:36:01.537Z,9.31
2022-10-22T01:39:05.348Z,9.34
2022-10-22T01:42:08.101Z,9.35
2022-10-22T01:45:12.922Z,9.27
2022-10-22T01:48:40.205Z,9.34
2022-10-22T01:52:04.500Z,9.34
2022-10-22T01:55:30.306Z,9.34
2022-10-22T01:58:39.417Z,9.36
2022-10-22T02:01:49.707Z,9.37
2022-10-22T02:05:03.175Z,9.38
2022-10-22T02:08:22.309Z,9.36
2022-10-22T02:11:25.228Z,9.37
2022-10-22T02:14:29.758Z,9.35
2022-10-22T02:17:36.840Z,9.26
2022-10-22T02:20:41.784Z,9.26
2022-10-22T02:23:44.990Z,9.24
2022-10-22T02:27:06.563Z,9.17
2022-10-22T02:30:19.024Z,9.11
2022-10-22T02:33:31.009Z,9.09
2022-10-22T02:36:34.147Z,8.99
2022-10-22T02:39:37.218Z,9.02
2022-10-22T02:42:41.256Z,8.95
2022-10-22T02:45:44.320Z,8.95
2022-10-22T02:48:47.305Z,8.96
2022-10-22T02:51:49.924Z,8.97
2022-10-22T02:54:52.793Z,8.92
2022-10-22T02:57:55.323Z,8.91
2022-10-22T03:00:58.261Z,8.90
2022-10-22T03:04:00.846Z,8.84
2022-10-22T03:07:03.887Z,8.83
2022-10-22T03:10:07.174Z,8.81
2022-10-22T03:13:09.996Z,8.69
2022-10-22T03:16:12.531Z,8.71
2022-10-22T03:19:15.594Z,8.68
2022-10-22T03:22:23.724Z,8.71
2022-10-22T03:25:27.335Z,8.65
2022-10-22T03:28:31.594Z,8.64
2022-10-22T03:31:34.477Z,8.58
2022-10-22T03:34:37.071Z,8.51
2022-10-22T03:37:40.381Z,8.41
2022-10-22T03:40:44.026Z,8.34
2022-10-22T03:43:50.206Z,8.20
2022-10-22T03:46:52.671Z,8.03
2022-10-22T03:49:55.614Z,8.06
2022-10-22T03:52:58.305Z,8.05
2022-10-22T03:56:01.206Z,8.02
2022-10-22T03:59:04.517Z,8.03
2022-10-22T04:02:07.861Z,8.04
2022-10-22T04:05:10.857Z,8.09
2022-10-22T04:08:15.659Z,8.08
2022-10-22T04:11:18.678Z,8.01
2022-10-22T04:14:21.265Z,8.08
2022-10-22T04:17:24.214Z,8.08
2022-10-22T04:20:26.781Z,8.13
2022-10-22T04:23:29.577Z,8.14
2022-10-22T04:26:32.423Z,8.17
2022-10-22T04:29:35.280Z,8.17
2022-10-22T04:32:37.889Z,8.17
2022-10-22T04:35:40.691Z,8.18
2022-10-22T04:38:45.404Z,8.15
2022-10-22T04:41:48.300Z,8.13
2022-10-22T04:44:50.881Z,8.12
2022-10-22T04:47:53.691Z,8.10
2022-10-22T04:50:58.341Z,8.09
2022-10-22T04:54:01.218Z,8.12
2022-10-22T04:57:03.906Z,8.08
2022-10-22T05:00:07.598Z,8.09
2022-10-22T05:03:10.129Z,8.07
2022-10-22T05:09:21.345Z,7.99
2022-10-22T05:12:24.364Z,8.01
2022-10-22T05:15:27.021Z,7.96
2022-10-22T05:18:29.921Z,7.94
2022-10-22T05:21:32.969Z,7.91
2022-10-22T05:24:37.193Z,7.95
2022-10-22T05:27:39.978Z,7.97
2022-10-22T05:30:43.060Z,8.00
2022-10-22T05:33:46.790Z,8.04
2022-10-22T05:36:49.720Z,8.09
2022-10-22T05:40:01.759Z,8.12
2022-10-22T05:43:15.183Z,8.19
2022-10-22T05:46:22.467Z,8.20
2022-10-22T05:49:25.615Z,8.29
2022-10-22T05:52:28.098Z,8.32
2022-10-22T05:55:31.000Z,8.38
2022-10-22T05:58:34.187Z,8.41
2022-10-22T06:01:39.205Z,8.44
2022-10-22T06:04:42.278Z,8.49
2022-10-22T06:07:44.837Z,8.44
2022-10-22T06:10:47.725Z,8.54
2022-10-22T06:13:51.255Z,8.61
2022-10-22T06:16:55.008Z,8.66
2022-10-22T06:19:58.123Z,8.62
2022-10-22T06:23:01.094Z,8.60
2022-10-22T06:26:04.731Z,8.62
2022-10-22T06:29:08.119Z,8.60
2022-10-22T06:32:11.274Z,8.72
2022-10-22T06:35:14.323Z,8.76
2022-10-22T06:38:17.064Z,8.84
2022-10-22T06:41:21.335Z,8.93
2022-10-22T06:44:25.462Z,9.05
2022-10-22T06:47:28.285Z,9.22
2022-10-22T06:50:31.267Z,9.30
2022-10-22T06:53:34.765Z,9.38
2022-10-22T06:56:37.287Z,9.45
2022-10-22T06:59:40.406Z,9.52
2022-10-22T07:02:43.448Z,9.62
2022-10-22T07:05:46.516Z,9.81
2022-10-22T07:08:49.176Z,9.85
2022-10-22T07:11:52.043Z,10.07
2022-10-22T07:14:54.616Z,10.16
2022-10-22T07:17:57.987Z,10.90
2022-10-22T07:21:01.243Z,10.73
2022-10-22T07:24:04.282Z,10.57
2022-10-22T07:27:09.449Z,10.60
2022-10-22T07:30:14.758Z,10.64
2022-10-22T07:33:17.435Z,10.64
2022-10-22T07:36:20.430Z,10.54
2022-10-22T07:39:25.787Z,10.53
2022-10-22T07:45:36.045Z,10.37
2022-10-22T07:48:39.379Z,11.64
2022-10-22T07:51:42.051Z,11.66
2022-10-22T07:54:46.038Z,11.67
2022-10-22T07:57:48.548Z,11.86
2022-10-22T08:00:52.082Z,12.03
2022-10-22T08:03:54.934Z,12.18
2022-10-22T08:06:57.739Z,12.07
2022-10-22T08:10:00.501Z,12.37
2022-10-22T08:13:03.271Z,12.51
2022-10-22T08:16:06.214Z,12.57
2022-10-22T08:19:08.917Z,12.69
2022-10-22T08:22:11.681Z,13.03
2022-10-22T08:25:15.410Z,13.30
2022-10-22T08:28:21.166Z,13.61
2022-10-22T08:31:24.781Z,13.84
2022-10-22T08:34:27.590Z,14.10
2022-10-22T08:37:30.180Z,14.47
2022-10-22T08:40:35.520Z,14.59
2022-10-22T08:44:17.152Z,14.66
2022-10-22T08:47:32.070Z,14.88
2022-10-22T08:50:41.436Z,15.06
2022-10-22T08:54:00.992Z,14.75
2022-10-22T08:58:16.201Z,15.07
2022-10-22T09:01:23.396Z,15.07
2022-10-22T09:04:30.816Z,14.35
2022-10-22T09:07:33.640Z,14.15
2022-10-22T09:10:38.987Z,14.03
2022-10-22T09:13:44.060Z,13.94
2022-10-22T09:17:18.918Z,13.91
2022-10-22T09:20:28.777Z,13.86
2022-10-22T09:24:03.726Z,13.84
2022-10-22T09:27:28.000Z,13.86
2022-10-22T09:30:34.399Z,13.87
2022-10-22T09:33:37.122Z,13.86
2022-10-22T09:36:39.605Z,13.75
2022-10-22T09:39:48.280Z,13.77
2022-10-22T09:42:51.189Z,13.79
2022-10-22T09:46:02.355Z,13.84
2022-10-22T09:49:10.567Z,13.78
2022-10-22T09:52:28.412Z,13.86
2022-10-22T09:55:31.055Z,13.91
2022-10-22T09:58:43.990Z,13.93
2022-10-22T10:01:46.421Z,13.94
2022-10-22T10:04:51.611Z,13.97
2022-10-22T10:07:54.176Z,13.94
2022-10-22T10:11:01.589Z,14.08
2022-10-22T10:14:24.675Z,14.06
2022-10-22T10:17:37.347Z,14.00
2022-10-22T10:20:41.330Z,14.00
2022-10-22T10:24:02.988Z,14.05
2022-10-22T10:27:10.306Z,13.95
2022-10-22T10:30:17.654Z,13.89
2022-10-22T10:33:34.326Z,13.93
2022-10-22T10:36:49.498Z,13.92
2022-10-22T10:40:29.088Z,13.92
2022-10-22T10:43:50.375Z,13.95
2022-10-22T10:46:52.777Z,14.00
2022-10-22T10:50:09.712Z,14.11
2022-10-22T10:53:25.007Z,14.15
2022-10-22T10:56:49.739Z,14.29
2022-10-22T11:00:02.714Z,14.32
2022-10-22T11:03:26.855Z,14.31
2022-10-22T11:06:34.437Z,14.24
2022-10-22T11:09:42.836Z,14.21
2022-10-22T11:12:48.950Z,14.18
2022-10-22T11:16:01.358Z,14.15
2022-10-22T11:19:55.706Z,14.02
2022-10-22T11:23:19.944Z,13.99
2022-10-22T11:26:50.897Z,13.90
2022-10-22T11:30:02.642Z,13.96
2022-10-22T11:33:14.795Z,14.02
2022-10-22T11:36:19.776Z,14.00
2022-10-22T11:39:43.058Z,14.06
2022-10-22T11:42:48.502Z,14.04
2022-10-22T11:45:58.577Z,14.12
2022-10-22T11:49:04.685Z,14.12
2022-10-22T11:52:24.240Z,14.16
2022-10-22T11:55:32.383Z,14.18
2022-10-22T11:58:44.695Z,14.26
2022-10-22T12:01:48.055Z,14.29
2022-10-22T12:04:51.195Z,14.37
2022-10-22T12:07:56.994Z,14.39
2022-10-22T12:11:06.031Z,14.41
2022-10-22T12:14:29.212Z,14.72
2022-10-22T12:17:32.097Z,14.56
2022-10-22T12:20:34.666Z,14.53
2022-10-22T12:23:37.608Z,14.42
2022-10-22T12:26:40.086Z,14.50
2022-10-22T12:29:42.897Z,14.56
2022-10-22T12:32:45.987Z,14.55
2022-10-22T12:35:51.574Z,14.50
2022-10-22T12:38:54.222Z,14.65
2022-10-22T12:41:56.973Z,14.65
2022-10-22T12:44:59.519Z,14.52
2022-10-22T12:48:05.499Z,14.46
2022-10-22T12:51:09.539Z,14.34
2022-10-22T12:54:33.059Z,14.34
2022-10-22T12:57:35.552Z,14.29
2022-10-22T13:00:39.263Z,14.23
2022-10-22T13:03:45.018Z,14.16
2022-10-22T13:06:52.809Z,14.12
2022-10-22T13:09:59.846Z,14.05
2022-10-22T13:13:04.107Z,13.98
2022-10-22T13:16:15.073Z,13.93
2022-10-22T13:19:44.481Z,13.87
2022-10-22T13:23:02.693Z,13.83
2022-10-22T13:26:15.285Z,13.77
2022-10-22T13:29:22.119Z,13.74
2022-10-22T13:32:31.292Z,13.76
2022-10-22T13:35:38.236Z,13.76
2022-10-22T13:38:41.707Z,13.66
2022-10-22T13:41:44.422Z,13.59
2022-10-22T13:44:47.359Z,13.80
2022-10-22T13:47:52.281Z,13.76
2022-10-22T13:50:55.758Z,14.05
2022-10-22T13:53:58.482Z,14.20
2022-10-22T13:57:01.328Z,14.24
2022-10-22T14:00:04.156Z,14.32
2022-10-22T14:03:20.528Z,14.37
2022-10-22T14:06:23.670Z,14.15
2022-10-22T14:09:26.282Z,13.91
2022-10-22T14:12:28.943Z,13.70
2022-10-22T14:15:31.549Z,13.57
2022-10-22T14:18:34.918Z,13.44
2022-10-22T14:21:38.063Z,13.37
2022-10-22T14:24:40.864Z,13.30
2022-10-22T14:27:45.273Z,13.24
2022-10-22T14:30:48.158Z,13.19
2022-10-22T14:33:50.817Z,13.16
2022-10-22T14:36:53.506Z,13.14
2022-10-22T14:40:01.650Z,13.12
2022-10-22T14:43:05.599Z,13.10
2022-10-22T14:46:09.142Z,13.06
2022-10-22T14:49:11.903Z,12.95
2022-10-22T14:52:15.050Z,13.04
2022-10-22T14:55:20.868Z,13.03
2022-10-22T14:58:23.457Z,13.02
2022-10-22T15:01:26.230Z,13.01
2022-10-22T15:04:30.537Z,13.02
2022-10-22T15:07:33.379Z,12.96
2022-10-22T15:10:36.143Z,12.95
2022-10-22T15:13:41.367Z,12.93
2022-10-22T15:16:43.897Z,12.92
2022-10-22T15:19:46.875Z,12.89
2022-10-22T15:22:49.552Z,12.88
2022-10-22T15:25:52.357Z,12.79
2022-10-22T15:28:55.145Z,12.76
2022-10-22T15:31:59.428Z,12.72
2022-10-22T15:35:02.350Z,12.68
2022-10-22T15:38:09.173Z,12.65
2022-10-22T15:41:13.536Z,12.61
2022-10-22T15:44:18.817Z,12.58
2022-10-22T15:47:22.737Z,12.58
2022-10-22T15:50:28.067Z,12.57
2022-10-22T15:53:30.753Z,13.24
2022-10-22T15:56:33.583Z,13.52
2022-10-22T15:59:36.479Z,13.68
2022-10-22T16:02:39.795Z,13.70
2022-10-22T16:05:51.466Z,13.71
2022-10-22T16:08:54.895Z,13.73
2022-10-22T16:11:57.979Z,13.78
2022-10-22T16:15:00.520Z,13.65
2022-10-22T16:18:03.326Z,13.69
2022-10-22T16:21:06.028Z,13.56
2022-10-22T16:24:09.411Z,13.62
2022-10-22T16:27:12.357Z,13.41
2022-10-22T16:30:16.309Z,13.43
2022-10-22T16:33:19.073Z,13.28
2022-10-22T16:36:22.469Z,12.85
2022-10-22T16:39:25.335Z,12.53
2022-10-22T16:42:28.322Z,12.30
2022-10-22T16:45:31.263Z,12.14
2022-10-22T16:48:34.455Z,12.06
2022-10-22T16:51:37.049Z,11.95
2022-10-22T16:54:40.083Z,11.81
2022-10-22T16:57:50.055Z,11.74
2022-10-22T17:00:53.143Z,11.65
2022-10-22T17:03:58.706Z,11.59
2022-10-22T17:07:01.780Z,11.56
2022-10-22T17:10:05.374Z,11.49
2022-10-22T17:13:08.468Z,11.40
2022-10-22T17:16:13.285Z,11.36
2022-10-22T17:19:16.422Z,11.33
2022-10-22T17:22:19.139Z,11.29
2022-10-22T17:25:24.399Z,11.27
2022-10-22T17:28:28.051Z,11.19
2022-10-22T17:31:33.149Z,11.16
2022-10-22T17:34:35.689Z,11.15
2022-10-22T17:37:39.512Z,11.10
2022-10-22T17:40:42.466Z,11.06
2022-10-22T17:46:54.115Z,11.03
2022-10-22T17:49:58.151Z,11.02
2022-10-22T17:53:00.950Z,10.95
2022-10-22T17:56:07.117Z,10.95
2022-10-22T17:59:13.172Z,10.89
2022-10-22T18:02:18.082Z,10.88
2022-10-22T18:05:24.494Z,10.87
2022-10-22T18:08:27.308Z,10.89
2022-10-22T18:11:32.517Z,10.82
2022-10-22T18:14:35.467Z,10.79
2022-10-22T18:17:39.704Z,10.65
2022-10-22T18:20:42.687Z,10.95
2022-10-22T18:23:46.355Z,11.06
2022-10-22T18:26:49.198Z,10.98
2022-10-22T18:29:52.529Z,10.89
2022-10-22T18:32:55.438Z,10.85
2022-10-22T18:36:07.605Z,10.79
2022-10-22T18:39:15.849Z,10.78
2022-10-22T18:42:19.748Z,10.78
2022-10-22T18:45:23.152Z,10.74
2022-10-22T18:48:26.504Z,10.74
2022-10-22T18:51:33.191Z,10.71
2022-10-22T18:54:37.446Z,10.72
2022-10-22T18:57:46.142Z,10.75
2022-10-22T19:00:50.215Z,10.72
2022-10-22T19:03:53.091Z,10.63
2022-10-22T19:06:56.834Z,10.65
2022-10-22T19:09:59.721Z,10.67
2022-10-22T19:13:04.519Z,10.63
2022-10-22T19:16:20.404Z,10.61
2022-10-22T19:19:24.446Z,10.56
2022-10-22T19:22:27.579Z,10.57
2022-10-22T19:25:30.754Z,10.56
2022-10-22T19:28:33.903Z,10.47
2022-10-22T19:31:38.142Z,10.46
2022-10-22T19:34:41.197Z,10.43
2022-10-22T19:37:48.250Z,10.46
2022-10-22T19:40:51.379Z,10.43
2022-10-22T19:43:55.575Z,10.34
2022-10-22T19:46:58.717Z,10.34
2022-10-22T19:50:01.833Z,10.29
2022-10-22T19:53:04.579Z,10.27
2022-10-22T19:56:09.248Z,10.28
2022-10-22T19:59:12.147Z,10.25
2022-10-22T20:02:16.027Z,10.23
2022-10-22T20:05:19.106Z,10.21
2022-10-22T20:08:21.779Z,10.23
2022-10-22T20:11:26.898Z,10.18
2022-10-22T20:14:29.394Z,10.20
2022-10-22T20:17:32.838Z,10.20
2022-10-22T20:20:37.789Z,10.22
2022-10-22T20:23:41.725Z,10.22
2022-10-22T20:26:46.259Z,10.25
2022-10-22T20:29:49.123Z,10.26
2022-10-22T20:32:51.646Z,10.26
2022-10-22T20:36:07.696Z,10.22
2022-10-22T20:39:13.165Z,10.23
2022-10-22T20:42:16.549Z,10.21
2022-10-22T20:45:19.288Z,10.14
2022-10-22T20:48:32.721Z,10.07
2022-10-22T20:51:36.474Z,9.98
2022-10-22T20:54:42.555Z,9.96
2022-10-22T20:57:46.732Z,9.93
2022-10-22T21:00:50.434Z,9.88
2022-10-22T21:03:53.410Z,9.86
2022-10-22T21:06:57.544Z,9.85
2022-10-22T21:10:07.437Z,9.85
2022-10-22T21:13:11.119Z,9.83
2022-10-22T21:16:14.860Z,9.79
2022-10-22T21:19:19.300Z,9.76
2022-10-22T21:22:21.851Z,9.70
2022-10-22T21:25:24.668Z,9.70
2022-10-22T21:28:27.307Z,9.65
2022-10-22T21:31:30.216Z,9.61
2022-10-22T21:34:38.057Z,9.64
2022-10-22T21:37:42.150Z,9.57
2022-10-22T21:40:44.815Z,9.57
2022-10-22T21:43:48.028Z,9.59
2022-10-22T21:46:50.754Z,9.54
2022-10-22T21:49:53.921Z,9.58
2022-10-22T21:52:56.462Z,9.60
2022-10-22T21:55:59.906Z,9.63
2022-10-22T21:59:03.898Z,9.56
2022-10-22T22:02:06.835Z,9.64
2022-10-22T22:05:09.766Z,9.64
2022-10-22T22:08:12.335Z,9.67
2022-10-22T22:11:18.097Z,9.67
2022-10-22T22:14:20.699Z,9.72
2022-10-22T22:17:23.548Z,9.75
2022-10-22T22:20:26.154Z,9.75
2022-10-22T22:23:29.004Z,9.76
2022-10-22T22:26:31.563Z,9.76
2022-10-22T22:29:34.638Z,9.77
2022-10-22T22:32:37.286Z,9.77
2022-10-22T22:38:47.529Z,9.75
2022-10-22T22:41:50.716Z,9.73
2022-10-22T22:44:53.263Z,9.68
2022-10-22T22:47:56.150Z,9.66
2022-10-22T22:51:01.966Z,9.61
2022-10-22T22:54:05.064Z,9.59
2022-10-22T22:57:07.552Z,9.50
2022-10-22T23:00:11.137Z,9.49
2022-10-22T23:03:14.220Z,9.51
2022-10-22T23:06:17.035Z,9.51
2022-10-22T23:12:28.925Z,9.46
2022-10-22T23:15:31.432Z,9.44
2022-10-22T23:18:35.167Z,9.42
2022-10-22T23:21:39.919Z,9.41
2022-10-22T23:24:42.862Z,9.40
2022-10-22T23:27:45.532Z,9.40
2022-10-22T23:30:48.940Z,9.40
2022-10-22T23:33:51.473Z,9.40
2022-10-22T23:36:55.094Z,9.37
2022-10-22T23:39:57.855Z,9.36
2022-10-22T23:43:01.027Z,9.36
2022-10-22T23:46:08.931Z,9.40
2022-10-22T23:49:11.964Z,9.39
2022-10-22T23:52:14.596Z,9.36
2022-10-22T23:55:20.770Z,9.32
2022-10-22T23:58:23.572Z,9.32
